Blue Galaxy — SWDA — position and weather

sailwx.info

Track history (hours):
 
Tides and Currents Weather Stations Pressure Air Temp Water Temp Dewpoint Dewpoint Depression Visibility Wind Speed Wind Dir Waves Ship Positions

Blue Galaxy

Last reported at 2015-May-05 02:27 UTC. Time now 2015-May-05 04:11 UTC.
Position N 35°30' E 024°13'.

Length 192 m; draft 6.7 m.

Type: Passenger vessel. MMSI: 239672000.

Date/timePositionNaut miles runAvg speedWind from/ knotsBaromVisibWave heightAir tempDewpointWater temp
2015-May-05 02:27N 35°30' E 024°13'1415.1
2015-May-05 01:33N 35°43' E 024°17'2719.7
2015-May-05 00:12N 36°09' E 024°09'7420.2
2015-May-04 20:31N 37°21' E 023°47'1920.1
2015-May-04 19:34N 37°40' E 023°42'1716.9
2015-May-04 18:33N 37°57' E 023°38'0 0.1
2015-May-04 17:25N 37°57' E 023°38'0 0.0
2015-May-04 16:32N 37°57' E 023°38'0 0.0
2015-May-04 15:32N 37°57' E 023°38'0 0.0
2015-May-04 14:32N 37°57' E 023°38'0 0.0
2015-May-04 13:32N 37°57' E 023°38'0 0.0
2015-May-04 12:32N 37°57' E 023°38'0 0.0
2015-May-04 11:32N 37°57' E 023°38'0 0.0
2015-May-04 10:32N 37°57' E 023°38'0 0.0
2015-May-04 09:32N 37°57' E 023°38'0 0.0
2015-May-04 08:32N 37°57' E 023°38'0 0.0
2015-May-04 07:33N 37°57' E 023°38'0 0.0
2015-May-04 06:22N 37°57' E 023°38'0 0.0
2015-May-04 05:28N 37°57' E 023°38'0 0.0
2015-May-04 04:31N 37°57' E 023°38'0 0.0
2015-May-04 03:28N 37°57' E 023°38'0 0.0
2015-May-04 02:32N 37°57' E 023°38'1010.4
2015-May-04 01:33N 37°47' E 023°41'2019.7
2015-May-04 00:33N 37°28' E 023°48'3020.4
2015-May-03 23:07N 36°59' E 023°55'1320.5
2015-May-03 22:29N 36°47' E 023°58'6820.9
2015-May-03 19:13N 35°39' E 024°12'10 0.6
2015-May-03 02:31N 35°29' E 024°10'1414.8
2015-May-03 01:33N 35°37' E 024°25'2120.5
2015-May-03 00:31N 35°58' E 024°27'4320.0
2015-May-02 22:22N 36°38' E 024°10'5720.1
2015-May-02 19:33N 37°31' E 023°44'2020.1
2015-May-02 18:33N 37°50' E 023°37'7 6.4
2015-May-02 17:31N 37°57' E 023°38'0 0.0
2015-May-02 16:31N 37°57' E 023°38'0 0.0
2015-May-02 15:28N 37°57' E 023°38'0 0.0
2015-May-02 14:28N 37°57' E 023°38'0 0.0
2015-May-02 13:31N 37°57' E 023°38'0 0.0
2015-May-02 12:31N 37°57' E 023°38'0 0.0
2015-May-02 11:31N 37°57' E 023°38'0 0.0
2015-May-02 10:31N 37°57' E 023°38'0 0.0
2015-May-02 09:31N 37°57' E 023°38'0 0.0
2015-May-02 08:31N 37°57' E 023°38'0 0.0
2015-May-02 07:31N 37°57' E 023°38'0 0.0
2015-May-02 06:31N 37°57' E 023°38'0 0.0
2015-May-02 05:31N 37°57' E 023°38'0 0.0
2015-May-02 04:31N 37°57' E 023°38'0 0.0
2015-May-02 03:31N 37°57' E 023°38'0 0.2
2015-May-02 02:33N 37°57' E 023°38'1514.8
2015-May-02 01:33N 37°43' E 023°45'2220.2
2015-May-02 00:28N 37°21' E 023°50'2119.5
2015-May-01 23:22N 37°00' E 023°55'1214.1
2015-May-01 22:31N 36°48' E 023°58'2021.1
2015-May-01 21:33N 36°28' E 024°02'23 1.1
2015-May-01 00:18N 36°08' E 024°15'9019.0
2015-Apr-30 19:33N 37°34' E 023°44'2019.8
2015-Apr-30 18:33N 37°53' E 023°37'4 3.8
2015-Apr-30 17:32N 37°57' E 023°38'0 0.0
2015-Apr-30 16:29N 37°57' E 023°38'0 0.0
2015-Apr-30 15:32N 37°57' E 023°38'0 0.0
2015-Apr-30 14:33N 37°57' E 023°38'0 0.0
2015-Apr-30 13:33N 37°57' E 023°38'0 0.0
2015-Apr-30 12:33N 37°57' E 023°38'0 0.0
2015-Apr-30 11:33N 37°57' E 023°38'0 0.0
2015-Apr-30 10:33N 37°57' E 023°38'0 0.0
2015-Apr-30 09:33N 37°57' E 023°38'0 0.0
2015-Apr-30 08:33N 37°57' E 023°38'0 0.0
2015-Apr-30 07:33N 37°57' E 023°38'0 0.0
2015-Apr-30 06:33N 37°57' E 023°38'0 0.0
2015-Apr-30 05:21N 37°57' E 023°38'0 0.0
2015-Apr-30 04:23N 37°57' E 023°38'0 0.0
2015-Apr-30 03:26N 37°57' E 023°38'0 0.3
2015-Apr-30 02:33N 37°57' E 023°38'1615.7
2015-Apr-30 01:33N 37°42' E 023°45'12320.4
2015-Apr-29 19:33N 35°41' E 024°12'109 4.7
2015-Apr-28 20:21N 37°28' E 023°45'1620.2
2015-Apr-28 19:34N 37°43' E 023°40'1414.0
2015-Apr-28 18:33N 37°57' E 023°38'0 0.0
2015-Apr-28 17:31N 37°57' E 023°38'0 0.0
2015-Apr-28 16:31N 37°57' E 023°38'0 0.0
2015-Apr-28 15:28N 37°57' E 023°38'0 0.0
2015-Apr-28 14:31N 37°57' E 023°38'0 0.0
2015-Apr-28 13:28N 37°57' E 023°38'0 0.0
2015-Apr-28 12:31N 37°57' E 023°38'0 0.0
2015-Apr-28 11:31N 37°57' E 023°38'0 0.0
2015-Apr-28 10:31N 37°57' E 023°38'0 0.0
2015-Apr-28 09:31N 37°57' E 023°38'0 0.0
2015-Apr-28 08:31N 37°57' E 023°38'0 0.0
2015-Apr-28 07:33N 37°57' E 023°38'0 0.0
2015-Apr-28 06:33N 37°57' E 023°38'0 0.0
2015-Apr-28 05:33N 37°57' E 023°38'0 0.0
2015-Apr-28 04:32N 37°57' E 023°38'0 0.0
2015-Apr-28 03:33N 37°57' E 023°38'0 0.0
2015-Apr-28 02:33N 37°57' E 023°38'1110.7
2015-Apr-28 01:34N 37°46' E 023°41'2120.7
2015-Apr-28 00:33N 37°26' E 023°48'2120.6
2015-Apr-27 23:34N 37°06' E 023°53'2120.6
2015-Apr-27 22:34N 36°46' E 023°59'1918.8
2015-Apr-27 21:33N 36°27' E 024°02'2320.3
2015-Apr-27 20:25N 36°05' E 024°06'1921.2
2015-Apr-27 19:33N 35°46' E 024°10'1817.8
2015-Apr-27 18:33N 35°29' E 024°08'3 0.5
2015-Apr-27 12:30N 35°29' E 024°05'12 1.1
2015-Apr-27 01:17N 35°40' E 024°11'1419.7
2015-Apr-27 00:33N 35°54' E 024°08'10120.1
2015-Apr-26 19:33N 37°33' E 023°44'1919.7
2015-Apr-26 18:33N 37°51' E 023°36'6 5.6
2015-Apr-26 17:33N 37°57' E 023°38'0 0.0
2015-Apr-26 16:33N 37°57' E 023°38'0 0.0
2015-Apr-26 15:33N 37°57' E 023°38'0 0.0
2015-Apr-26 14:33N 37°57' E 023°38'0 0.0
2015-Apr-26 13:33N 37°57' E 023°38'0 0.0
2015-Apr-26 12:33N 37°57' E 023°38'0 0.0
2015-Apr-26 11:33N 37°57' E 023°38'0 0.0
2015-Apr-26 10:33N 37°57' E 023°38'0 0.0
2015-Apr-26 09:33N 37°57' E 023°38'0 0.0
2015-Apr-26 08:33N 37°57' E 023°38'0 0.0
2015-Apr-26 07:33N 37°57' E 023°38'0 0.0
2015-Apr-26 06:33N 37°57' E 023°38'0 0.0
2015-Apr-26 05:33N 37°57' E 023°38'0 0.0
2015-Apr-26 04:33N 37°57' E 023°38'0 0.0
2015-Apr-26 03:33N 37°57' E 023°38'0 0.3
2015-Apr-26 02:33N 37°57' E 023°38'1717.0
2015-Apr-26 01:34N 37°40' E 023°45'8320.6
2015-Apr-25 21:32N 36°18' E 024°02'2121.1
2015-Apr-25 20:30N 35°57' E 024°08'2219.1
2015-Apr-25 19:21N 35°36' E 024°13'1 0.1
2015-Apr-25 06:11N 35°35' E 024°12'  
Track history (hours):
 
Tides and Currents Weather Stations Pressure Air Temp Water Temp Dewpoint Dewpoint Depression Visibility Wind Speed Wind Dir Waves Ship Positions

Blue Galaxy

Last reported at 2015-May-05 02:27 UTC. Time now 2015-May-05 04:11 UTC.
Position N 35°30' E 024°13'.

Length 192 m; draft 6.7 m.

Type: Passenger vessel. MMSI: 239672000.

Date/timePositionNaut miles runAvg speedWind from/ knotsBaromVisibWave heightAir tempDewpointWater temp
2015-May-05 02:27N 35°30' E 024°13'1415.1
2015-May-05 01:33N 35°43' E 024°17'2719.7
2015-May-05 00:12N 36°09' E 024°09'7420.2
2015-May-04 20:31N 37°21' E 023°47'1920.1
2015-May-04 19:34N 37°40' E 023°42'1716.9
2015-May-04 18:33N 37°57' E 023°38'0 0.1
2015-May-04 17:25N 37°57' E 023°38'0 0.0
2015-May-04 16:32N 37°57' E 023°38'0 0.0
2015-May-04 15:32N 37°57' E 023°38'0 0.0
2015-May-04 14:32N 37°57' E 023°38'0 0.0
2015-May-04 13:32N 37°57' E 023°38'0 0.0
2015-May-04 12:32N 37°57' E 023°38'0 0.0
2015-May-04 11:32N 37°57' E 023°38'0 0.0
2015-May-04 10:32N 37°57' E 023°38'0 0.0
2015-May-04 09:32N 37°57' E 023°38'0 0.0
2015-May-04 08:32N 37°57' E 023°38'0 0.0
2015-May-04 07:33N 37°57' E 023°38'0 0.0
2015-May-04 06:22N 37°57' E 023°38'0 0.0
2015-May-04 05:28N 37°57' E 023°38'0 0.0
2015-May-04 04:31N 37°57' E 023°38'0 0.0
2015-May-04 03:28N 37°57' E 023°38'0 0.0
2015-May-04 02:32N 37°57' E 023°38'1010.4
2015-May-04 01:33N 37°47' E 023°41'2019.7
2015-May-04 00:33N 37°28' E 023°48'3020.4
2015-May-03 23:07N 36°59' E 023°55'1320.5
2015-May-03 22:29N 36°47' E 023°58'6820.9
2015-May-03 19:13N 35°39' E 024°12'10 0.6
2015-May-03 02:31N 35°29' E 024°10'1414.8
2015-May-03 01:33N 35°37' E 024°25'2120.5
2015-May-03 00:31N 35°58' E 024°27'4320.0
2015-May-02 22:22N 36°38' E 024°10'5720.1
2015-May-02 19:33N 37°31' E 023°44'2020.1
2015-May-02 18:33N 37°50' E 023°37'7 6.4
2015-May-02 17:31N 37°57' E 023°38'0 0.0
2015-May-02 16:31N 37°57' E 023°38'0 0.0
2015-May-02 15:28N 37°57' E 023°38'0 0.0
2015-May-02 14:28N 37°57' E 023°38'0 0.0
2015-May-02 13:31N 37°57' E 023°38'0 0.0
2015-May-02 12:31N 37°57' E 023°38'0 0.0
2015-May-02 11:31N 37°57' E 023°38'0 0.0
2015-May-02 10:31N 37°57' E 023°38'0 0.0
2015-May-02 09:31N 37°57' E 023°38'0 0.0
2015-May-02 08:31N 37°57' E 023°38'0 0.0
2015-May-02 07:31N 37°57' E 023°38'0 0.0
2015-May-02 06:31N 37°57' E 023°38'0 0.0
2015-May-02 05:31N 37°57' E 023°38'0 0.0
2015-May-02 04:31N 37°57' E 023°38'0 0.0
2015-May-02 03:31N 37°57' E 023°38'0 0.2
2015-May-02 02:33N 37°57' E 023°38'1514.8
2015-May-02 01:33N 37°43' E 023°45'2220.2
2015-May-02 00:28N 37°21' E 023°50'2119.5
2015-May-01 23:22N 37°00' E 023°55'1214.1
2015-May-01 22:31N 36°48' E 023°58'2021.1
2015-May-01 21:33N 36°28' E 024°02'23 1.1
2015-May-01 00:18N 36°08' E 024°15'9019.0
2015-Apr-30 19:33N 37°34' E 023°44'2019.8
2015-Apr-30 18:33N 37°53' E 023°37'4 3.8
2015-Apr-30 17:32N 37°57' E 023°38'0 0.0
2015-Apr-30 16:29N 37°57' E 023°38'0 0.0
2015-Apr-30 15:32N 37°57' E 023°38'0 0.0
2015-Apr-30 14:33N 37°57' E 023°38'0 0.0
2015-Apr-30 13:33N 37°57' E 023°38'0 0.0
2015-Apr-30 12:33N 37°57' E 023°38'0 0.0
2015-Apr-30 11:33N 37°57' E 023°38'0 0.0
2015-Apr-30 10:33N 37°57' E 023°38'0 0.0
2015-Apr-30 09:33N 37°57' E 023°38'0 0.0
2015-Apr-30 08:33N 37°57' E 023°38'0 0.0
2015-Apr-30 07:33N 37°57' E 023°38'0 0.0
2015-Apr-30 06:33N 37°57' E 023°38'0 0.0
2015-Apr-30 05:21N 37°57' E 023°38'0 0.0
2015-Apr-30 04:23N 37°57' E 023°38'0 0.0
2015-Apr-30 03:26N 37°57' E 023°38'0 0.3
2015-Apr-30 02:33N 37°57' E 023°38'1615.7
2015-Apr-30 01:33N 37°42' E 023°45'12320.4
2015-Apr-29 19:33N 35°41' E 024°12'109 4.7
2015-Apr-28 20:21N 37°28' E 023°45'1620.2
2015-Apr-28 19:34N 37°43' E 023°40'1414.0
2015-Apr-28 18:33N 37°57' E 023°38'0 0.0
2015-Apr-28 17:31N 37°57' E 023°38'0 0.0
2015-Apr-28 16:31N 37°57' E 023°38'0 0.0
2015-Apr-28 15:28N 37°57' E 023°38'0 0.0
2015-Apr-28 14:31N 37°57' E 023°38'0 0.0
2015-Apr-28 13:28N 37°57' E 023°38'0 0.0
2015-Apr-28 12:31N 37°57' E 023°38'0 0.0
2015-Apr-28 11:31N 37°57' E 023°38'0 0.0
2015-Apr-28 10:31N 37°57' E 023°38'0 0.0
2015-Apr-28 09:31N 37°57' E 023°38'0 0.0
2015-Apr-28 08:31N 37°57' E 023°38'0 0.0
2015-Apr-28 07:33N 37°57' E 023°38'0 0.0
2015-Apr-28 06:33N 37°57' E 023°38'0 0.0
2015-Apr-28 05:33N 37°57' E 023°38'0 0.0
2015-Apr-28 04:32N 37°57' E 023°38'0 0.0
2015-Apr-28 03:33N 37°57' E 023°38'0 0.0
2015-Apr-28 02:33N 37°57' E 023°38'1110.7
2015-Apr-28 01:34N 37°46' E 023°41'2120.7
2015-Apr-28 00:33N 37°26' E 023°48'2120.6
2015-Apr-27 23:34N 37°06' E 023°53'2120.6
2015-Apr-27 22:34N 36°46' E 023°59'1918.8
2015-Apr-27 21:33N 36°27' E 024°02'2320.3
2015-Apr-27 20:25N 36°05' E 024°06'1921.2
2015-Apr-27 19:33N 35°46' E 024°10'1817.8
2015-Apr-27 18:33N 35°29' E 024°08'3 0.5
2015-Apr-27 12:30N 35°29' E 024°05'12 1.1
2015-Apr-27 01:17N 35°40' E 024°11'1419.7
2015-Apr-27 00:33N 35°54' E 024°08'10120.1
2015-Apr-26 19:33N 37°33' E 023°44'1919.7
2015-Apr-26 18:33N 37°51' E 023°36'6 5.6
2015-Apr-26 17:33N 37°57' E 023°38'0 0.0
2015-Apr-26 16:33N 37°57' E 023°38'0 0.0
2015-Apr-26 15:33N 37°57' E 023°38'0 0.0
2015-Apr-26 14:33N 37°57' E 023°38'0 0.0
2015-Apr-26 13:33N 37°57' E 023°38'0 0.0
2015-Apr-26 12:33N 37°57' E 023°38'0 0.0
2015-Apr-26 11:33N 37°57' E 023°38'0 0.0
2015-Apr-26 10:33N 37°57' E 023°38'0 0.0
2015-Apr-26 09:33N 37°57' E 023°38'0 0.0
2015-Apr-26 08:33N 37°57' E 023°38'0 0.0
2015-Apr-26 07:33N 37°57' E 023°38'0 0.0
2015-Apr-26 06:33N 37°57' E 023°38'0 0.0
2015-Apr-26 05:33N 37°57' E 023°38'0 0.0
2015-Apr-26 04:33N 37°57' E 023°38'0 0.0
2015-Apr-26 03:33N 37°57' E 023°38'0 0.3
2015-Apr-26 02:33N 37°57' E 023°38'1717.0
2015-Apr-26 01:34N 37°40' E 023°45'8320.6
2015-Apr-25 21:32N 36°18' E 024°02'2121.1
2015-Apr-25 20:30N 35°57' E 024°08'2219.1
2015-Apr-25 19:21N 35°36' E 024°13'1 0.1
2015-Apr-25 06:11N 35°35' E 024°12'  

Dump ship's entire track history